createdAt,value
2022-12-19T00:01:57.500Z,10.82
2022-12-19T00:04:25.779Z,7.18
2022-12-19T00:06:53.251Z,8.65
2022-12-19T00:09:21.026Z,9.55
2022-12-19T00:11:49.065Z,8.32
2022-12-19T00:14:17.049Z,10.55
2022-12-19T00:16:45.109Z,9.02
2022-12-19T00:19:13.975Z,12.57
2022-12-19T00:21:41.313Z,13.70
2022-12-19T00:24:20.424Z,11.40
2022-12-19T00:26:49.476Z,9.20
2022-12-19T00:29:17.384Z,12.18
2022-12-19T00:31:45.400Z,7.43
2022-12-19T00:34:15.347Z,9.45
2022-12-19T00:36:43.167Z,11.32
2022-12-19T00:39:12.404Z,12.95
2022-12-19T00:41:41.910Z,11.85
2022-12-19T00:44:12.592Z,8.65
2022-12-19T00:46:44.515Z,14.15
2022-12-19T00:49:20.143Z,11.55
2022-12-19T00:51:47.670Z,9.77
2022-12-19T00:54:15.748Z,9.73
2022-12-19T00:56:44.007Z,7.57
2022-12-19T00:59:12.190Z,7.90
2022-12-19T01:01:42.059Z,8.32
2022-12-19T01:04:29.826Z,10.55
2022-12-19T01:07:02.106Z,10.77
2022-12-19T01:09:33.256Z,7.85
2022-12-19T01:12:24.484Z,8.05
2022-12-19T01:14:57.132Z,8.50
2022-12-19T01:17:43.850Z,8.32
2022-12-19T01:20:14.804Z,4.55
2022-12-19T01:22:42.680Z,7.68
2022-12-19T01:25:13.471Z,4.90
2022-12-19T01:27:41.344Z,4.57
2022-12-19T01:30:09.992Z,6.88
2022-12-19T01:32:39.436Z,8.98
2022-12-19T01:35:14.613Z,5.32
2022-12-19T01:37:50.756Z,6.25
2022-12-19T01:40:19.265Z,9.23
2022-12-19T01:42:49.942Z,5.30
2022-12-19T01:47:57.534Z,6.50
2022-12-19T01:50:30.239Z,3.78
2022-12-19T01:52:58.373Z,8.23
2022-12-19T01:55:26.796Z,3.10
2022-12-19T01:57:58.371Z,4.03
2022-12-19T02:00:29.972Z,3.70
2022-12-19T02:03:01.004Z,3.90
2022-12-19T02:05:29.491Z,6.45
2022-12-19T02:07:57.594Z,3.83
2022-12-19T02:10:33.282Z,2.78
2022-12-19T02:13:04.934Z,7.35
2022-12-19T02:15:44.376Z,6.55
2022-12-19T02:18:16.187Z,2.40
2022-12-19T02:23:44.825Z,3.55
2022-12-19T02:26:23.405Z,3.50
2022-12-19T02:31:37.278Z,4.10
2022-12-19T02:34:25.053Z,4.28
2022-12-19T02:37:04.645Z,3.22
2022-12-19T02:39:45.278Z,3.10
2022-12-19T02:42:15.488Z,5.28
2022-12-19T02:44:48.290Z,2.85
2022-12-19T02:47:20.381Z,4.45
2022-12-19T02:49:49.381Z,4.18
2022-12-19T02:55:01.203Z,5.18
2022-12-19T02:57:51.856Z,4.93
2022-12-19T03:00:21.376Z,3.65
2022-12-19T03:10:56.903Z,6.78
2022-12-19T03:13:30.798Z,3.58
2022-12-19T03:15:59.531Z,4.63
2022-12-19T03:18:27.909Z,5.25
2022-12-19T03:21:03.212Z,3.35
2022-12-19T03:23:31.721Z,5.07
2022-12-19T03:26:02.524Z,4.53
2022-12-19T03:28:37.404Z,4.63
2022-12-19T03:31:06.298Z,2.78
2022-12-19T03:33:35.528Z,3.15
2022-12-19T03:36:05.725Z,3.88
2022-12-19T03:38:35.758Z,3.00
2022-12-19T03:41:04.093Z,5.82
2022-12-19T03:43:32.436Z,5.70
2022-12-19T03:54:17.982Z,9.13
2022-12-19T03:57:05.166Z,5.35
2022-12-19T03:59:37.305Z,5.25
2022-12-19T04:02:05.759Z,4.65
2022-12-19T04:04:36.768Z,4.30
2022-12-19T04:07:05.188Z,4.13
2022-12-19T04:09:33.390Z,6.35
2022-12-19T04:12:03.852Z,5.03
2022-12-19T04:14:32.640Z,5.07
2022-12-19T04:17:13.553Z,7.43
2022-12-19T04:22:23.968Z,4.68
2022-12-19T04:24:53.296Z,6.82
2022-12-19T04:27:21.137Z,3.60
2022-12-19T04:29:52.329Z,6.50
2022-12-19T04:32:20.673Z,4.65
2022-12-19T04:34:48.534Z,7.47
2022-12-19T04:37:16.032Z,7.50
2022-12-19T04:39:43.613Z,2.42
2022-12-19T04:42:11.266Z,3.88
2022-12-19T04:44:39.239Z,5.95
2022-12-19T04:47:06.757Z,4.53
2022-12-19T04:49:34.262Z,3.25
2022-12-19T04:52:02.475Z,8.05
2022-12-19T04:54:30.361Z,3.78
2022-12-19T04:56:58.046Z,3.17
2022-12-19T04:59:26.967Z,5.00
2022-12-19T05:01:55.146Z,6.85
2022-12-19T05:04:22.797Z,3.92
2022-12-19T05:06:50.944Z,3.40
2022-12-19T05:09:18.539Z,6.18
2022-12-19T05:11:46.247Z,6.65
2022-12-19T05:14:14.069Z,3.45
2022-12-19T05:16:42.335Z,4.32
2022-12-19T05:19:09.772Z,5.95
2022-12-19T05:21:37.406Z,4.15
2022-12-19T05:24:05.173Z,6.60
2022-12-19T05:26:32.992Z,3.95
2022-12-19T05:29:00.598Z,5.30
2022-12-19T05:31:28.548Z,5.88
2022-12-19T05:33:56.575Z,3.80
2022-12-19T05:36:27.758Z,4.88
2022-12-19T05:38:58.154Z,4.40
2022-12-19T05:41:25.693Z,4.50
2022-12-19T05:43:54.467Z,5.10
2022-12-19T05:46:22.261Z,4.13
2022-12-19T05:48:49.872Z,6.05
2022-12-19T05:51:17.992Z,5.68
2022-12-19T05:53:45.476Z,7.28
2022-12-19T05:56:14.444Z,3.65
2022-12-19T05:58:42.971Z,4.50
2022-12-19T06:01:12.623Z,4.80
2022-12-19T06:03:40.802Z,4.13
2022-12-19T06:06:10.730Z,4.85
2022-12-19T06:08:38.759Z,6.70
2022-12-19T06:11:07.164Z,4.35
2022-12-19T06:13:35.346Z,4.00
2022-12-19T06:16:04.430Z,5.72
2022-12-19T06:18:32.371Z,6.75
2022-12-19T06:21:01.197Z,6.50
2022-12-19T06:23:30.259Z,4.85
2022-12-19T06:25:58.420Z,4.07
2022-12-19T06:28:26.687Z,8.43
2022-12-19T06:30:56.927Z,3.70
2022-12-19T06:33:25.013Z,2.78
2022-12-19T06:36:00.750Z,3.95
2022-12-19T06:38:29.086Z,3.65
2022-12-19T06:41:16.435Z,3.55
2022-12-19T06:43:46.913Z,4.45
2022-12-19T06:48:44.099Z,4.95
2022-12-19T06:51:11.470Z,3.60
2022-12-19T06:53:39.228Z,3.00
2022-12-19T06:56:06.763Z,3.38
2022-12-19T06:58:35.219Z,4.32
2022-12-19T07:01:02.885Z,3.33
2022-12-19T07:03:35.043Z,3.42
2022-12-19T07:06:02.588Z,4.95
2022-12-19T07:08:30.583Z,4.25
2022-12-19T07:10:58.397Z,4.15
2022-12-19T07:13:26.302Z,2.70
2022-12-19T07:15:55.189Z,2.13
2022-12-19T07:18:26.090Z,6.10
2022-12-19T07:20:53.645Z,3.90
2022-12-19T07:23:22.102Z,2.03
2022-12-19T07:25:49.553Z,3.75
2022-12-19T07:28:17.201Z,3.45
2022-12-19T07:30:45.060Z,4.35
2022-12-19T07:33:16.996Z,4.53
2022-12-19T07:35:47.398Z,4.30
2022-12-19T07:38:15.388Z,3.53
2022-12-19T07:40:43.302Z,4.43
2022-12-19T07:43:11.610Z,5.55
2022-12-19T07:45:39.203Z,3.40
2022-12-19T07:48:07.191Z,4.65
2022-12-19T07:50:34.976Z,4.25
2022-12-19T07:53:03.024Z,3.78
2022-12-19T07:55:30.565Z,4.78
2022-12-19T07:57:57.960Z,5.15
2022-12-19T08:00:25.540Z,5.57
2022-12-19T08:02:53.633Z,5.25
2022-12-19T08:05:21.152Z,6.97
2022-12-19T08:07:49.039Z,4.95
2022-12-19T08:10:20.593Z,4.95
2022-12-19T08:12:48.900Z,4.93
2022-12-19T08:15:16.774Z,5.95
2022-12-19T08:17:44.611Z,5.43
2022-12-19T08:20:12.106Z,7.35
2022-12-19T08:22:39.324Z,8.23
2022-12-19T08:25:07.831Z,4.40
2022-12-19T08:27:36.125Z,5.05
2022-12-19T08:30:04.021Z,4.55
2022-12-19T08:32:32.163Z,7.93
2022-12-19T08:35:08.217Z,5.82
2022-12-19T08:37:36.211Z,3.72
2022-12-19T08:40:04.007Z,5.72
2022-12-19T08:42:32.071Z,5.40
2022-12-19T08:44:59.382Z,3.17
2022-12-19T08:47:27.107Z,5.38
2022-12-19T08:49:55.518Z,5.82
2022-12-19T08:52:22.738Z,6.10
2022-12-19T08:54:50.284Z,5.03
2022-12-19T08:57:17.579Z,5.75
2022-12-19T08:59:44.983Z,5.70
2022-12-19T09:02:13.639Z,5.35
2022-12-19T09:05:59.488Z,5.25
2022-12-19T09:07:31.263Z,7.95
2022-12-19T09:10:00.567Z,8.68
2022-12-19T09:12:27.858Z,8.48
2022-12-19T09:14:55.140Z,8.02
2022-12-19T09:17:22.892Z,10.73
2022-12-19T09:19:50.919Z,6.22
2022-12-19T09:22:18.211Z,5.75
2022-12-19T09:24:46.119Z,6.97
2022-12-19T09:27:14.232Z,5.63
2022-12-19T09:29:42.838Z,6.63
2022-12-19T09:32:10.057Z,4.75
2022-12-19T09:34:39.229Z,6.32
2022-12-19T09:37:07.628Z,7.05
2022-12-19T09:39:36.080Z,6.45
2022-12-19T09:42:11.772Z,8.13
2022-12-19T09:44:59.548Z,7.60
2022-12-19T09:47:30.740Z,4.53
2022-12-19T09:49:59.618Z,5.38
2022-12-19T09:52:37.793Z,6.10
2022-12-19T09:55:17.782Z,6.38
2022-12-19T09:57:50.003Z,5.10
2022-12-19T10:00:19.934Z,8.65
2022-12-19T10:02:50.333Z,6.05
2022-12-19T10:08:08.545Z,5.25
2022-12-19T10:13:35.790Z,6.13
2022-12-19T10:16:15.862Z,4.88
2022-12-19T10:22:16.371Z,7.63
2022-12-19T10:24:39.915Z,4.68
2022-12-19T10:27:13.718Z,4.03
2022-12-19T10:32:28.043Z,11.65
2022-12-19T10:34:55.346Z,9.82
2022-12-19T10:37:40.954Z,7.68
2022-12-19T10:45:33.830Z,6.53
2022-12-19T10:48:01.181Z,7.63
2022-12-19T10:50:30.067Z,3.85
2022-12-19T10:55:46.996Z,7.22
2022-12-19T10:58:21.546Z,6.93
2022-12-19T11:01:08.516Z,5.45
2022-12-19T11:03:36.456Z,6.93
2022-12-19T11:06:04.425Z,9.30
2022-12-19T11:08:34.092Z,5.22
2022-12-19T11:19:15.800Z,8.10
2022-12-19T11:22:43.226Z,9.07
2022-12-19T11:29:30.511Z,6.18
2022-12-19T11:30:06.373Z,5.78
2022-12-19T11:30:43.367Z,5.93
2022-12-19T11:30:47.447Z,7.63
2022-12-19T11:34:07.193Z,7.90
2022-12-19T11:39:17.099Z,6.00
2022-12-19T11:41:50.295Z,6.63
2022-12-19T11:44:27.619Z,8.15
2022-12-19T11:47:04.092Z,7.82
2022-12-19T11:49:39.061Z,7.03
2022-12-19T11:55:02.311Z,7.35
2022-12-19T11:57:31.095Z,10.35
2022-12-19T12:00:04.737Z,5.28
2022-12-19T12:02:48.879Z,5.72
2022-12-19T12:05:36.561Z,8.35
2022-12-19T12:14:23.243Z,8.57
2022-12-19T12:29:13.200Z,6.38
2022-12-19T12:31:48.724Z,8.85
2022-12-19T12:31:48.872Z,8.40
2022-12-19T12:32:00.975Z,8.77
2022-12-19T12:35:28.788Z,8.45
2022-12-19T12:39:26.661Z,6.00
2022-12-19T12:42:18.790Z,5.75
2022-12-19T12:44:47.034Z,7.65
2022-12-19T12:47:20.690Z,8.27
2022-12-19T12:55:12.357Z,6.00
2022-12-19T12:57:39.702Z,8.60
2022-12-19T13:08:27.764Z,8.48
2022-12-19T13:10:56.037Z,6.57
2022-12-19T13:13:43.159Z,6.22
2022-12-19T13:16:30.209Z,7.57
2022-12-19T13:19:21.089Z,9.18
2022-12-19T13:22:11.333Z,6.43
2022-12-19T13:24:39.315Z,7.85
2022-12-19T13:39:48.680Z,12.23
2022-12-19T13:43:52.711Z,7.57
2022-12-19T13:49:00.807Z,9.32
2022-12-19T13:51:28.115Z,11.77
2022-12-19T13:53:59.616Z,8.23
2022-12-19T13:56:30.851Z,9.65
2022-12-19T13:58:59.782Z,6.45
2022-12-19T14:01:29.555Z,7.82
2022-12-19T14:03:59.041Z,8.45
2022-12-19T14:06:41.644Z,14.68
2022-12-19T14:11:27.367Z,12.02
2022-12-19T14:13:50.341Z,10.25
2022-12-19T14:15:31.787Z,6.93
2022-12-19T14:18:41.963Z,6.22
2022-12-19T14:22:02.017Z,10.80
2022-12-19T14:23:42.991Z,6.18
2022-12-19T14:28:25.746Z,8.55
2022-12-19T14:29:07.037Z,7.57
2022-12-19T14:36:51.602Z,11.85
2022-12-19T14:39:28.466Z,9.43
2022-12-19T14:52:35.577Z,11.23
2022-12-19T14:54:15.329Z,7.15
2022-12-19T14:54:24.629Z,8.50
2022-12-19T14:58:56.837Z,9.98
2022-12-19T15:01:26.610Z,10.85
2022-12-19T15:04:47.661Z,11.38
2022-12-19T15:07:08.676Z,7.03
2022-12-19T15:11:04.092Z,7.38
2022-12-19T15:14:53.426Z,8.63
2022-12-19T15:16:24.371Z,9.68
2022-12-19T15:18:53.827Z,11.25
2022-12-19T15:21:21.072Z,12.10
2022-12-19T15:23:48.384Z,8.98
2022-12-19T15:26:17.093Z,6.53
2022-12-19T15:28:53.038Z,10.77
2022-12-19T15:31:29.028Z,8.38
2022-12-19T15:36:43.513Z,9.68
2022-12-19T15:39:10.712Z,11.70
2022-12-19T15:41:37.871Z,6.45
2022-12-19T15:44:08.875Z,10.05
2022-12-19T15:46:37.868Z,7.85
2022-12-19T15:49:13.738Z,12.65
2022-12-19T15:51:40.895Z,14.40
2022-12-19T15:56:56.627Z,7.13
2022-12-19T15:59:37.417Z,10.82
2022-12-19T16:02:16.093Z,11.57
2022-12-19T16:04:44.186Z,10.43
2022-12-19T16:07:15.772Z,6.93
2022-12-19T16:09:42.985Z,10.57
2022-12-19T16:12:13.927Z,9.75
2022-12-19T16:14:41.224Z,8.73
2022-12-19T16:17:12.565Z,10.30
2022-12-19T16:19:39.686Z,7.95
2022-12-19T16:24:52.824Z,7.75
2022-12-19T16:27:28.596Z,8.77
2022-12-19T16:29:56.769Z,9.88
2022-12-19T16:32:24.930Z,7.10
2022-12-19T16:34:53.102Z,10.75
2022-12-19T16:37:20.299Z,14.90
2022-12-19T16:39:47.391Z,12.30
2022-12-19T16:42:16.554Z,10.43
2022-12-19T16:44:45.196Z,12.55
2022-12-19T16:47:13.452Z,9.77
2022-12-19T16:49:40.968Z,10.75
2022-12-19T16:52:08.095Z,9.43
2022-12-19T16:54:35.264Z,9.43
2022-12-19T16:57:06.877Z,12.27
2022-12-19T16:59:35.925Z,11.63
2022-12-19T17:02:13.955Z,6.72
2022-12-19T17:04:42.697Z,10.98
2022-12-19T17:07:11.270Z,10.88
2022-12-19T17:09:38.577Z,12.73
2022-12-19T17:12:06.272Z,12.52
2022-12-19T17:14:33.675Z,10.68
2022-12-19T17:17:01.142Z,11.98
2022-12-19T17:19:34.194Z,9.20
2022-12-19T17:22:01.359Z,10.77
2022-12-19T17:24:28.788Z,10.18
2022-12-19T17:26:56.001Z,13.68
2022-12-19T17:29:23.717Z,12.10
2022-12-19T17:31:50.880Z,11.65
2022-12-19T17:34:23.051Z,11.52
2022-12-19T17:36:50.179Z,10.57
2022-12-19T17:39:22.001Z,13.57
2022-12-19T17:41:50.146Z,13.57
2022-12-19T17:44:17.638Z,12.32
2022-12-19T17:46:45.389Z,9.57
2022-12-19T17:49:29.661Z,12.02
2022-12-19T17:54:24.246Z,9.45
2022-12-19T17:56:52.148Z,13.43
2022-12-19T17:59:21.046Z,12.45
2022-12-19T18:01:48.819Z,9.30
2022-12-19T18:04:18.544Z,12.95
2022-12-19T18:06:46.747Z,11.30
2022-12-19T18:09:22.693Z,13.35
2022-12-19T18:11:51.633Z,11.88
2022-12-19T18:14:19.174Z,9.40
2022-12-19T18:16:47.070Z,7.22
2022-12-19T18:19:16.525Z,10.90
2022-12-19T18:21:43.768Z,9.10
2022-12-19T18:24:12.739Z,8.55
2022-12-19T18:26:40.020Z,8.95
2022-12-19T18:29:07.366Z,10.20
2022-12-19T18:31:36.544Z,8.13
2022-12-19T18:34:07.925Z,9.55
2022-12-19T18:36:40.375Z,11.93
2022-12-19T18:41:35.011Z,9.75
2022-12-19T18:44:02.972Z,7.63
2022-12-19T18:46:32.021Z,9.30
2022-12-19T18:48:59.212Z,7.63
2022-12-19T18:51:26.368Z,11.48
2022-12-19T18:53:53.556Z,6.95
2022-12-19T18:56:20.711Z,7.70
2022-12-19T18:58:48.808Z,8.15
2022-12-19T19:01:17.616Z,10.35
2022-12-19T19:03:49.980Z,10.95
2022-12-19T19:08:44.196Z,8.20
2022-12-19T19:11:30.277Z,6.95
2022-12-19T19:13:57.510Z,7.70
2022-12-19T19:16:26.139Z,8.73
2022-12-19T19:18:54.634Z,8.15
2022-12-19T19:21:23.974Z,9.13
2022-12-19T19:23:55.991Z,8.45
2022-12-19T19:26:23.249Z,6.03
2022-12-19T19:28:52.676Z,7.22
2022-12-19T19:31:21.309Z,7.28
2022-12-19T19:33:50.775Z,5.80
2022-12-19T19:36:19.720Z,7.55
2022-12-19T19:38:49.967Z,9.02
2022-12-19T19:41:17.120Z,8.70
2022-12-19T19:43:44.241Z,11.27
2022-12-19T19:46:11.609Z,8.90
2022-12-19T19:48:38.918Z,6.85
2022-12-19T19:51:06.006Z,8.30
2022-12-19T19:53:33.845Z,6.65
2022-12-19T19:56:01.451Z,9.40
2022-12-19T19:58:29.493Z,9.20
2022-12-19T20:00:57.879Z,9.80
2022-12-19T20:03:25.265Z,5.57
2022-12-19T20:06:00.503Z,7.50
2022-12-19T20:08:29.004Z,7.93
2022-12-19T20:11:00.978Z,7.13
2022-12-19T20:13:29.919Z,7.57
2022-12-19T20:16:06.646Z,7.40
2022-12-19T20:18:33.927Z,8.20
2022-12-19T20:21:01.500Z,7.60
2022-12-19T20:23:29.320Z,7.30
2022-12-19T20:26:00.893Z,5.55
2022-12-19T20:28:28.096Z,8.75
2022-12-19T20:30:55.268Z,6.18
2022-12-19T20:33:22.523Z,6.93
2022-12-19T20:35:49.631Z,8.80
2022-12-19T20:38:17.129Z,6.50
2022-12-19T20:40:45.573Z,5.82
2022-12-19T20:43:12.933Z,7.60
2022-12-19T20:45:40.093Z,8.63
2022-12-19T20:48:07.255Z,7.85
2022-12-19T20:50:38.203Z,10.02
2022-12-19T20:53:09.801Z,6.03
2022-12-19T20:55:36.890Z,7.90
2022-12-19T20:58:03.986Z,5.15
2022-12-19T21:00:31.127Z,5.90
2022-12-19T21:05:52.066Z,6.68
2022-12-19T21:08:19.514Z,7.25
2022-12-19T21:10:46.571Z,5.93
2022-12-19T21:13:13.886Z,5.55
2022-12-19T21:15:41.352Z,6.38
2022-12-19T21:18:08.883Z,8.13
2022-12-19T21:20:37.075Z,4.60
2022-12-19T21:23:05.110Z,7.07
2022-12-19T21:25:32.309Z,5.00
2022-12-19T21:27:59.456Z,7.55
2022-12-19T21:30:26.632Z,4.82
2022-12-19T21:32:53.894Z,8.30
2022-12-19T21:35:21.048Z,7.35
2022-12-19T21:37:51.658Z,6.15
2022-12-19T21:40:19.674Z,6.60
2022-12-19T21:42:47.147Z,5.50
2022-12-19T21:45:14.699Z,5.63
2022-12-19T21:47:42.422Z,4.35
2022-12-19T21:50:11.031Z,6.00
2022-12-19T21:52:38.221Z,6.10
2022-12-19T21:55:06.638Z,7.72
2022-12-19T21:57:37.913Z,5.53
2022-12-19T22:00:05.543Z,6.45
2022-12-19T22:02:33.035Z,8.07
2022-12-19T22:05:00.191Z,8.02
2022-12-19T22:07:27.751Z,6.75
2022-12-19T22:09:55.304Z,6.68
2022-12-19T22:12:22.507Z,7.63
2022-12-19T22:14:49.704Z,5.05
2022-12-19T22:17:16.790Z,3.72
2022-12-19T22:19:44.647Z,5.68
2022-12-19T22:22:11.758Z,6.80
2022-12-19T22:24:38.812Z,5.50
2022-12-19T22:27:05.950Z,7.00
2022-12-19T22:29:36.833Z,8.48
2022-12-19T22:32:04.767Z,5.00
2022-12-19T22:34:32.249Z,5.93
2022-12-19T22:36:59.424Z,6.47
2022-12-19T22:39:26.587Z,6.45
2022-12-19T22:41:54.188Z,6.50
2022-12-19T22:44:22.344Z,5.47
2022-12-19T22:46:49.996Z,6.78
2022-12-19T22:49:17.185Z,5.40
2022-12-19T22:51:44.325Z,6.55
2022-12-19T22:54:12.314Z,6.90
2022-12-19T22:56:39.591Z,6.30
2022-12-19T22:59:07.635Z,4.93
2022-12-19T23:01:37.313Z,6.65
2022-12-19T23:04:05.268Z,6.70
2022-12-19T23:06:33.165Z,5.93
2022-12-19T23:09:00.822Z,6.13
2022-12-19T23:11:30.990Z,6.20
2022-12-19T23:13:58.536Z,6.45
2022-12-19T23:16:25.937Z,5.10
2022-12-19T23:18:53.109Z,5.70
2022-12-19T23:21:21.601Z,6.93
2022-12-19T23:23:49.967Z,7.30
2022-12-19T23:26:18.890Z,5.90
2022-12-19T23:28:51.290Z,6.03
2022-12-19T23:31:19.004Z,7.45
2022-12-19T23:33:46.243Z,6.65
2022-12-19T23:36:13.743Z,8.13
2022-12-19T23:38:42.500Z,5.97
2022-12-19T23:41:11.219Z,5.45
2022-12-19T23:43:38.824Z,7.20
2022-12-19T23:46:07.181Z,7.90
2022-12-19T23:48:34.343Z,6.00
2022-12-19T23:51:02.885Z,6.93
2022-12-19T23:53:30.179Z,5.43
2022-12-19T23:55:57.546Z,7.45
2022-12-19T23:58:25.140Z,9.43
